Tiempo atmosférico en la estación meteorológica de Cervantes, Lugo (1020 m.)



Fecha
DESCASC
Temp. máxima en grados centígrados (hora)
DESCASC
Temp. mínima en grados centígrados (hora)
DESCASC
Temp. media en grados centígrados
DESCASC
Racha de viento máxima en m/sg (hora)
DESCASC
Velocidad máxima media en intervalos de 10 minutos(hora)
DESCASC
Precipitaciones diarias en mm
DESCASC
Precipitaciones de 00:00 a 06:00 en mm
DESCASC
Precipitaciones de 06:00 a 12:00 en mm
DESCASC
Precipitaciones de 12:00 a 18:00 en mm
DESCASC
Precipitaciones de 18:00 a 24:00 en mm
DESCASC
18-02-2018 9.8 (14:10) -0.6 (03:40) 4.6 6.67 (18:20) 2.78 (15:00) 0 0 0 0 0
17-02-2018 7.6 (17:00) -0.1 (23:40) 3.7 6.11 (04:20) 2.78 (04:10) 2.8 2.8 0 0 0
16-02-2018 9.4 (14:50) 4.6 (23:50) 7 7.78 (14:00) 4.44 (04:50) 6.6 0.8 0 1.2 4.6
15-02-2018 10.7 (14:10) 8.5 (00:00) 9.6 11.11 (12:50) 4.17 (03:00) 2.2 0 0 0.8 1.4
14-02-2018 8.9 (17:30) 4.8 (00:00) 6.8 13.89 (01:50) 4.72 (01:50) 3 0.4 1.6 0.6 0.4
13-02-2018 5.3 (20:10) -1.6 (-00:0) 1.9 11.39 (21:20) 5.28 (20:20) 30 0 8.4 16.2 5.4
12-02-2018 1.7 (13:20) -1.9 (-00:0) -0.1 5 (23:40) 2.5 (16:50) 0.2 0 0 0.2 0
11-02-2018 7.3 (13:20) -0.7 (-00:0) 3.3 11.67 (13:50) 4.17 (08:40) 17 1.2 1.6 8.4 5.8
10-02-2018 3.1 (13:50) -1.1 (-00:0) 1 5.28 (00:40) 2.22 (00:40) 2 0 0.2 0.4 1.4
09-02-2018 2.4 (11:20) -0.8 (-00:0) 0.8 9.44 (16:30) 4.17 (16:40) 9.4 4.8 1.8 2.6 0.2
08-02-2018 5 (14:00) -5.5 (-00:0) -0.3 4.72 (23:20) 3.06 (23:20) 0.2 0.2 0 0 0
07-02-2018 1.3 (14:10) -3.3 (-00:0) -1 6.67 (03:10) 3.06 (01:10) 2 0.6 0.8 0.6 0
06-02-2018 0.1 (14:40) -4.6 (-00:0) -2.2 7.22 (01:00) 3.33 (00:50) 1 0 0 0.2 0.8
05-02-2018 4.9 (13:00) -3.9 (-00:0) 0.5 10.83 (15:30) 5 (15:30) 3.2 0.8 2.4 0 0
04-02-2018 1.8 (11:40) -2.3 (-00:0) -0.3 5.83 (10:40) 3.33 (23:00) 12.4 7.6 4 0.2 0.6
03-02-2018 2.6 (15:40) -1.2 (-00:0) 0.7 10 (13:30) 4.72 (13:30) 12.6 0.2 2 2.4 8
02-02-2018 3 (13:30) -2.3 (-00:0) 0.4 8.61 (01:00) 3.33 (01:00) 8.2 2 2.4 3.6 0.2
01-02-2018 4.4 (00:00) -1.9 (-00:0) 1.3 8.06 (05:40) 3.61 (05:40) 21 3.6 0.4 7.4 9.6
31-01-2018 13.2 (14:30) 3.9 (00:00) 8.5 5.83 (16:20) 2.78 (21:10) 0.2 0 0 0 0.2
30-01-2018 13.6 (14:20) 4.9 (00:00) 9.3 7.22 (12:20) 3.89 (12:20) 0 0 0 0 0
29-01-2018 14.1 (16:40) 4.2 (00:00) 9.2 13.06 (02:50) 9.44 (02:50) 0 0 0 0 0
28-01-2018 12 (15:50) 1.1 (00:00) 6.6 13.61 (23:00) 8.89 (22:40) 0 0 0 0 0
27-01-2018 4.5 (21:50) 0.8 (00:00) 2.7 6.94 (11:10) 3.06 (07:20) 2 0.2 0 1 0.8
26-01-2018 2.5 (16:10) 0.1 (00:00) 1.3 8.06 (16:20) 3.61 (16:50) 5 0.6 1.4 2.6 0.4
25-01-2018 5.6 (04:40) 0.1 (00:00) 2.8 10.28 (01:00) 6.39 (01:00) 18.4 3 8.6 6.2 0.6
24-01-2018 7.4 (14:10) 0.8 (00:00) 4.1 10 (16:00) 5.28 (19:20) 0 0 0 0 0
23-01-2018 11.8 (16:30) 3.9 (00:00) 7.9 6.39 (06:30) 3.89 (06:30) 0 0 0 0 0
22-01-2018 9 (12:10) 5 (00:00) 7 5 (15:00) 2.78 (14:30) 0 0 0 0 0

Gráficas

Temp. máximas Temp. mínimas Temp. medias Precipitaciones Rachas de viento máximas Velocidades máximas media en intervalos de 10 minutos

Datos horarios

Fecha y hora oficial Temperatura (ºC) Velocidad del viento (km/h) Dirección del viento Racha (km/h) Dirección de racha Precipitación (mm) Presión (hPa) Tendencia (hPa) Humedad (%)
2018-02-20 23:00:00 4.4 6 Norte 17 Norte 0 -- -- 76
2018-02-20 22:00:00 4 8 Norte 19 Norte 0 -- -- 84
2018-02-20 21:00:00 4.2 7 Norte 24 Norte 0 -- -- 88
2018-02-20 20:00:00 4.2 9 Norte 25 Noroeste 0 -- -- 91
2018-02-20 19:00:00 4.7 10 Norte 22 Nordeste 0 -- -- 88
2018-02-20 18:00:00 5.7 9 Norte 20 Norte 0 -- -- 81
2018-02-20 17:00:00 8.4 9 Norte 32 Norte 0 -- -- 71
2018-02-20 16:00:00 9.6 10 Norte 21 Nordeste 0 -- -- 63
2018-02-20 15:00:00 9.6 8 Norte 19 Norte 0 -- -- 65
2018-02-20 14:00:00 8.7 10 Norte 30 Norte 0 -- -- 76
2018-02-20 13:00:00 7.9 12 Nordeste 21 Nordeste 0 -- -- 77
2018-02-20 12:00:00 7.8 5 Norte 18 Nordeste 0 -- -- 75
2018-02-20 11:00:00 6.5 8 Norte 23 Norte 0 -- -- 78
2018-02-20 10:00:00 5.1 9 Norte 18 Nordeste 0 -- -- 85
2018-02-20 09:00:00 2.2 8 Noroeste 21 Norte 0 -- -- 93
2018-02-20 08:00:00 2.3 3 Norte 13 Noroeste 0 -- -- 93
2018-02-20 07:00:00 2.7 5 Norte 14 Noroeste 0 -- -- 97
2018-02-20 06:00:00 2.7 8 Norte 17 Norte 0 -- -- 98
2018-02-20 05:00:00 3 6 Norte 22 Nordeste 0 -- -- 98
2018-02-20 04:00:00 3.3 6 Norte 22 Nordeste 0 -- -- 99
2018-02-20 03:00:00 3.3 10 Norte 21 Nordeste 0 -- -- 98
2018-02-20 02:00:00 3.5 9 Norte 21 Nordeste 0 -- -- 98
2018-02-20 01:00:00 3.6 6 Norte 18 Norte 0 -- -- 98
2018-02-20 00:00:00 3.7 9 Norte 22 Norte 0 -- -- 98
2018-02-19 23:00:00 3.8 11 Norte 22 Norte 0 -- -- 98
2018-02-19 22:00:00 3.9 11 Norte 24 Norte 0 -- -- 98
2018-02-19 21:00:00 4.2 9 Norte 23 Nordeste 0.2 -- -- 98
2018-02-19 20:00:00 4.6 10 Norte 17 Nordeste 0.2 -- -- 98
2018-02-19 19:00:00 4.9 6 Norte 14 Nordeste 0 -- -- 97
2018-02-19 18:00:00 5.2 5 Norte 17 Nordeste 0 -- -- 96
2018-02-19 17:00:00 5.5 6 Norte 15 Noroeste 0 -- -- 94
2018-02-19 16:00:00 5.7 5 Norte 14 Nordeste 0 -- -- 91
2018-02-19 15:00:00 5.8 5 Norte 18 Nordeste 0 -- -- 91
2018-02-19 14:00:00 5.7 8 Norte 19 Nordeste 0 -- -- 89
2018-02-19 13:00:00 6 6 Nordeste 17 Nordeste 0 -- -- 87
2018-02-19 12:00:00 5.3 8 Norte 14 Nordeste 0 -- -- 92
2018-02-19 11:00:00 4.3 6 Norte 15 Nordeste 0 -- -- 93
2018-02-19 10:00:00 4 3 Norte 8 Norte 0 -- -- 94
2018-02-19 09:00:00 3.3 5 Norte 12 Norte 0 -- -- 95
2018-02-19 08:00:00 3.4 6 Norte 14 Norte 0 -- -- 93
2018-02-19 07:00:00 3.3 6 Norte 13 Norte 0 -- -- 94
2018-02-19 06:00:00 3.2 6 Norte 13 Norte 0 -- -- 95
2018-02-19 05:00:00 3.1 5 Norte 14 Noroeste 0 -- -- 92
2018-02-19 04:00:00 3.2 3 Noroeste 14 Norte 0 -- -- 93
2018-02-19 03:00:00 3.9 3 Norte 11 Norte 0 -- -- 86
2018-02-19 02:00:00 4 4 Norte 14 Norte 0 -- -- 87
2018-02-19 01:00:00 4.2 6 Norte 13 Noroeste 0 -- -- 91
2018-02-19 00:00:00 4.2 7 Norte 13 Norte 0 -- -- 92
2018-02-18 23:00:00 4.7 8 Norte 13 Norte 0 -- -- 89
2018-02-18 22:00:00 5.1 6 Norte 15 Norte 0 -- -- 87
2018-02-18 21:00:00 4.6 6 Norte 15 Norte 0 -- -- 91
2018-02-18 20:00:00 5 7 Norte 14 Norte 0 -- -- 88
2018-02-18 19:00:00 5.7 7 Norte 24 Nordeste 0 -- -- 83
2018-02-18 18:00:00 6.6 9 Norte 19 Nordeste 0 -- -- 77
2018-02-18 17:00:00 7.8 9 Norte 20 Nordeste 0 -- -- 74
2018-02-18 16:00:00 8.7 8 Norte 19 Norte 0 -- -- 70
2018-02-18 15:00:00 9.1 10 Norte 21 Norte 0 -- -- 66
2018-02-18 14:00:00 9.5 6 Nordeste 14 Nordeste 0 -- -- 64
2018-02-18 13:00:00 7.8 5 Sur 10 Sur 0 -- -- 70
2018-02-18 12:00:00 6.7 5 Sur 13 Sur 0 -- -- 72
2018-02-18 11:00:00 8.1 4 Sur 10 Sur 0 -- -- 64
2018-02-18 10:00:00 7.8 4 Sudoeste 11 Este 0 -- -- 66
2018-02-18 09:00:00 2.8 2 Oeste 5 Oeste 0 -- -- 75
2018-02-18 08:00:00 1 0 Calma 4 Norte 0 -- -- 67
2018-02-18 07:00:00 0.4 0 Calma 4 Este 0 -- -- 72
2018-02-18 06:00:00 0.3 0 Calma 4 Norte 0 -- -- 75
2018-02-18 05:00:00 0.5 0 Calma 5 Noroeste 0 -- -- 72
2018-02-18 04:00:00 -0.3 2 Norte 5 Nordeste 0 -- -- 86
2018-02-18 03:00:00 -0.3 0 Calma 5 Nordeste 0 -- -- 93
2018-02-18 02:00:00 -0.2 0 Calma 3 Nordeste 0 -- -- 93
2018-02-18 01:00:00 -0.1 0 Calma 3 Nordeste 0 -- -- 93
2018-02-18 00:00:00 0.2 0 Calma 6 Noroeste 0 -- -- 92
2018-02-17 23:00:00 0.5 4 Nordeste 8 Norte 0 -- -- 88
2018-02-17 22:00:00 1.3 0 Calma 9 Norte 0 -- -- 85
2018-02-17 21:00:00 2.1 4 Norte 11 Noroeste 0 -- -- 84
2018-02-17 20:00:00 2.4 10 Norte 17 Norte 0 -- -- 89
2018-02-17 19:00:00 3.2 8 Norte 14 Norte 0 -- -- 85
2018-02-17 18:00:00 4.9 8 Norte 13 Norte 0 -- -- 76
2018-02-17 17:00:00 7.6 6 Nordeste 19 Nordeste 0 -- -- 62
2018-02-17 16:00:00 6.3 6 Norte 18 Nordeste 0 -- -- 74
2018-02-17 15:00:00 6.5 6 Norte 16 Nordeste 0 -- -- 79
2018-02-17 14:00:00 4.9 8 Norte 16 Nordeste 0 -- -- 86
2018-02-17 13:00:00 5.4 4 Este 15 Nordeste 0 -- -- 79
2018-02-17 12:00:00 4 3 Sudeste 14 Nordeste 0 -- -- 88
2018-02-17 11:00:00 3.3 6 Nordeste 17 Nordeste 0 -- -- 87
2018-02-17 10:00:00 3.6 6 Norte 13 Nordeste 0 -- -- 87
2018-02-17 09:00:00 2.3 3 Sudeste 21 Norte 0 -- -- 89
2018-02-17 08:00:00 1.4 7 Norte 17 Norte 0 -- -- 98
2018-02-17 07:00:00 2.3 8 Norte 16 Norte 0 -- -- 98
2018-02-17 06:00:00 2.4 7 Norte 17 Nordeste 0 -- -- 98
2018-02-17 05:00:00 2.8 7 Norte 22 Nordeste 0.2 -- -- 98
2018-02-17 04:00:00 3.2 8 Norte 18 Norte 0.8 -- -- 98
2018-02-17 03:00:00 4.1 3 Norte 12 Nordeste 1.2 -- -- 98
2018-02-17 02:00:00 4.2 4 Norte 14 Este 0.6 -- -- 97
2018-02-17 01:00:00 4.5 5 Nordeste 10 Nordeste 0 -- -- 96
2018-02-17 00:00:00 4.6 5 Nordeste 28 Noroeste 0.4 -- -- 95
2018-02-16 23:00:00 5.5 12 Norte 28 Norte 1.2 -- -- 93
2018-02-16 22:00:00 6.3 10 Norte 27 Norte 1.2 -- -- 94
2018-02-16 21:00:00 7.1 5 Norte 23 Norte 1.2 -- -- 94
2018-02-16 20:00:00 7.4 10 Sudoeste 25 Oeste 0.2 -- -- 94
2018-02-16 19:00:00 7.8 3 Oeste 14 Noroeste 0.4 -- -- 93
2018-02-16 18:00:00 8.4 3 Norte 12 Oeste 0.8 -- -- 92
2018-02-16 17:00:00 8.7 3 Sudeste 16 Sur 0.4 -- -- 91
2018-02-16 16:00:00 8.8 7 Sudoeste 25 Sur 0 -- -- 90
2018-02-16 15:00:00 9.4 9 Sudoeste 26 Sur 0 -- -- 87
2018-02-16 14:00:00 9.2 13 Sudoeste 28 Sudoeste 0 -- -- 86
2018-02-16 13:00:00 9 8 Sur 20 Sur 0 -- -- 88
2018-02-16 12:00:00 8.4 6 Sudeste 21 Sur 0 -- -- 93
2018-02-16 11:00:00 8 9 Sur 18 Sur 0 -- -- 94
2018-02-16 10:00:00 8.1 10 Sur 22 Sur 0 -- -- 93
2018-02-16 09:00:00 7.8 6 Sur 15 Sudoeste 0 -- -- 93
2018-02-16 08:00:00 8 4 Sur 19 Sudoeste 0 -- -- 92
2018-02-16 07:00:00 7.9 12 Oeste 24 Sudoeste 0 -- -- 92
2018-02-16 06:00:00 8.4 15 Oeste 26 Sudoeste 0 -- -- 90
2018-02-16 05:00:00 8.3 16 Oeste 27 Sur 0 -- -- 91
2018-02-16 04:00:00 8.4 6 Sur 19 Sudoeste 0.2 -- -- 93
2018-02-16 03:00:00 8.6 5 Oeste 22 Sudoeste 0.2 -- -- 92
2018-02-16 02:00:00 8.7 6 Sur 20 Sudoeste 0.2 -- -- 93
2018-02-16 01:00:00 8.9 9 Sur 27 Oeste 0.2 -- -- 91
2018-02-16 00:00:00 9 9 Sudoeste 20 Sudoeste 0.2 -- -- 92
2018-02-15 23:00:00 8.9 5 Sudoeste 25 Sudoeste 0 -- -- 93
2018-02-15 22:00:00 9.1 10 Oeste 22 Oeste 0.2 -- -- 93
2018-02-15 21:00:00 9.1 7 Sudoeste 20 Sur 0.2 -- -- 93
2018-02-15 20:00:00 9.3 9 Sur 19 Sur 0.2 -- -- 93
2018-02-15 19:00:00 9.4 10 Sur 27 Sudoeste 0.6 -- -- 92
2018-02-15 18:00:00 9.8 8 Sudoeste 25 Oeste 0.6 -- -- 90
2018-02-15 17:00:00 10.2 10 Sudoeste 23 Sur 0 -- -- 86
2018-02-15 16:00:00 9.9 8 Sudoeste 30 Sur 0.2 -- -- 90
2018-02-15 15:00:00 10 9 Sudoeste 35 Sudoeste 0 -- -- 90
2018-02-15 14:00:00 10.3 9 Sudoeste 33 Sudoeste 0 -- -- 84
2018-02-15 13:00:00 9.9 14 Sudoeste 40 Sudoeste 0 -- -- 86
2018-02-15 12:00:00 9.5 13 Oeste 28 Oeste 0 -- -- 88
2018-02-15 11:00:00 9.4 12 Sudoeste 26 Sudoeste 0 -- -- 89
2018-02-15 10:00:00 9.6 8 Sudoeste 27 Sudoeste 0 -- -- 87
2018-02-15 09:00:00 9 9 Sudoeste 31 Sudoeste 0 -- -- 89
2018-02-15 08:00:00 8.8 8 Sudoeste 27 Norte 0 -- -- 91
2018-02-15 07:00:00 9 8 Sudoeste 25 Sur 0 -- -- 89
2018-02-15 06:00:00 8.8 6 Sudeste 29 Sudoeste 0 -- -- 91
2018-02-15 05:00:00 9 7 Sur 33 Oeste 0 -- -- 88
2018-02-15 04:00:00 8.7 10 Sur 29 Sur 0 -- -- 90
2018-02-15 03:00:00 8.8 15 Sudoeste 33 Sudoeste 0 -- -- 90
2018-02-15 02:00:00 8.7 12 Sur 30 Sur 0 -- -- 91
2018-02-15 01:00:00 8.9 10 Sur 30 Sur 0 -- -- 88
2018-02-15 00:00:00 8.5 10 Sur 27 Sudoeste 0.2 -- -- 92
2018-02-14 23:00:00 8.6 4 Oeste 20 Sur 0 -- -- 91
2018-02-14 22:00:00 8.6 6 Sudoeste 32 Oeste 0 -- -- 91
2018-02-14 21:00:00 8.7 9 Sudoeste 26 Sudoeste 0 -- -- 90
2018-02-14 20:00:00 8.8 13 Oeste 35 Sudoeste 0.2 -- -- 89
2018-02-14 19:00:00 8.7 10 Oeste 33 Sur 0 -- -- 91
2018-02-14 18:00:00 8.7 10 Sur 41 Sur 0 -- -- 90
2018-02-14 17:00:00 8.4 9 Sur 33 Oeste 0.2 -- -- 91
2018-02-14 16:00:00 8.6 11 Sudoeste 35 Sudoeste 0.2 -- -- 90
2018-02-14 15:00:00 8.4 10 Oeste 29 Sudoeste 0 -- -- 90
2018-02-14 14:00:00 8.3 9 Oeste 36 Oeste 0 -- -- 89
2018-02-14 13:00:00 8 13 Oeste 35 Noroeste 0.2 -- -- 91
2018-02-14 12:00:00 7.9 16 Oeste 40 Norte 0.4 -- -- 89
2018-02-14 11:00:00 7.6 9 Este 39 Sur 0.2 -- -- 89
2018-02-14 10:00:00 7.1 16 Oeste 39 Sudoeste 0.4 -- -- 90
2018-02-14 09:00:00 6.3 13 Sudoeste 30 Sur 0.2 -- -- 92
2018-02-14 08:00:00 5.6 8 Sudeste 37 Sur 0.2 -- -- 92
2018-02-14 07:00:00 5.2 9 Sudeste 32 Sur 0.2 -- -- 93
2018-02-14 06:00:00 4.9 9 Sur 26 Sudeste 0 -- -- 91
2018-02-14 05:00:00 5.3 11 Sudoeste 28 Sudoeste 0 -- -- 86
2018-02-14 04:00:00 5.2 8 Sudoeste 35 Sur 0 -- -- 85
2018-02-14 03:00:00 5.2 15 Oeste 46 Noroeste 0 -- -- 84
2018-02-14 02:00:00 5.1 16 Sudoeste 50 Sudoeste 0.2 -- -- 87
2018-02-14 01:00:00 5 6 Sur 28 Norte 0.2 -- -- 91
2018-02-14 00:00:00 4.9 7 Este 24 Oeste 0 -- -- 92
2018-02-13 23:00:00 5 6 Este 33 Norte 0 -- -- 92
2018-02-13 22:00:00 5 15 Norte 41 Nordeste 0.2 -- -- 95
2018-02-13 21:00:00 5.2 18 Norte 37 Norte 1.4 -- -- 95
2018-02-13 20:00:00 5.2 10 Nordeste 32 Norte 2.2 -- -- 95
2018-02-13 19:00:00 4.5 6 Nordeste 18 Norte 1.6 -- -- 98
2018-02-13 18:00:00 3.7 3 Sur 12 Nordeste 2.6 -- -- 97
2018-02-13 17:00:00 3.9 5 Nordeste 16 Norte 1.4 -- -- 96
2018-02-13 16:00:00 3.9 5 Nordeste 26 Norte 2.8 -- -- 96
2018-02-13 15:00:00 3.5 4 Nordeste 20 Noroeste 2.8 -- -- 95
2018-02-13 14:00:00 3.3 4 Nordeste 26 Nordeste 3.4 -- -- 96
2018-02-13 13:00:00 2.9 4 Nordeste 27 Nordeste 3.2 -- -- 96
2018-02-13 12:00:00 2.1 5 Este 18 Nordeste 1.6 -- -- 95
2018-02-13 11:00:00 1.7 10 Sudeste 32 Sur 2.2 -- -- 91
2018-02-13 10:00:00 1 11 Sur 30 Sur 2.2 -- -- 93
2018-02-13 09:00:00 1 13 Sur 39 Sur 1.6 -- -- 92
2018-02-13 08:00:00 0.2 7 Sur 35 Sur 0.4 -- -- 94
2018-02-13 07:00:00 -0.1 13 Sudoeste 39 Sur 0.4 -- -- 93
2018-02-13 06:00:00 -0.2 8 Este 32 Noroeste 0 -- -- 90
2018-02-13 05:00:00 -0.4 9 Oeste 32 Noroeste 0 -- -- 85
2018-02-13 04:00:00 -0.8 8 Sudoeste 30 Sudoeste 0 -- -- 85
2018-02-13 03:00:00 -1.5 12 Sudoeste 32 Sudoeste 0 -- -- 81
2018-02-13 02:00:00 -1.3 13 Sudoeste 29 Oeste 0 -- -- 81
2018-02-13 01:00:00 -0.6 9 Oeste 24 Oeste 0 -- -- 80
2018-02-13 00:00:00 -1.3 6 Sur 18 Sur 0 -- -- 85
2018-02-12 23:00:00 -1.3 5 Sur 11 Sur 0 -- -- 87
2018-02-12 22:00:00 -1.1 4 Oeste 9 Sudoeste 0 -- -- 85
2018-02-12 21:00:00 -1.4 2 Norte 10 Norte 0 -- -- 89
2018-02-12 20:00:00 -0.8 3 Este 14 Norte 0 -- -- 87
2018-02-12 19:00:00 -0.9 0 Calma 9 Nordeste 0 -- -- 91
2018-02-12 18:00:00 -0.3 3 Norte 9 Nordeste 0 -- -- 87
2018-02-12 17:00:00 0.1 8 Nordeste 16 Nordeste 0 -- -- 88
2018-02-12 16:00:00 0.7 4 Nordeste 15 Norte 0 -- -- 86
2018-02-12 15:00:00 1 5 Nordeste 17 Norte 0 -- -- 81
2018-02-12 14:00:00 1 4 Nordeste 15 Norte 0 -- -- 85
2018-02-12 13:00:00 0.7 3 Norte 11 Noroeste 0.2 -- -- 86
2018-02-12 12:00:00 -0.4 4 Norte 10 Noroeste 0 -- -- 88
2018-02-12 11:00:00 0.8 4 Este 9 Sudeste 0 -- -- 84
2018-02-12 10:00:00 -0.2 3 Noroeste 9 Noroeste 0 -- -- 88
2018-02-12 09:00:00 -1.7 4 Norte 7 Norte 0 -- -- 91
2018-02-12 08:00:00 -1.9 4 Norte 10 Norte 0 -- -- 93
2018-02-12 07:00:00 -1.3 5 Norte 10 Nordeste 0 -- -- 93
2018-02-12 06:00:00 -1.5 3 Norte 13 Norte 0 -- -- 92
2018-02-12 05:00:00 -1.2 5 Norte 14 Norte 0 -- -- 93
2018-02-12 04:00:00 -1.3 6 Norte 13 Norte 0 -- -- 92
2018-02-12 03:00:00 -1.3 6 Norte 15 Norte 0 -- -- 93
2018-02-12 02:00:00 -1.1 4 Norte 13 Norte 0 -- -- 92
2018-02-12 01:00:00 -0.8 6 Norte 14 Nordeste 0 -- -- 93
2018-02-12 00:00:00 -0.7 8 Norte 16 Nordeste 0 -- -- 93
2018-02-11 23:00:00 -0.5 4 Este 17 Nordeste 0 -- -- 96
2018-02-11 22:00:00 0.1 8 Norte 27 Nordeste 0 -- -- 98
2018-02-11 21:00:00 0.8 7 Norte 26 Este 0 -- -- 98
2018-02-11 20:00:00 1 8 Norte 23 Nordeste 2.8 -- -- 98
2018-02-11 19:00:00 2 9 Norte 27 Norte 3 -- -- 98
2018-02-11 18:00:00 3.1 10 Norte 19 Nordeste 1.4 -- -- 97
2018-02-11 17:00:00 4.3 12 Norte 25 Nordeste 1.4 -- -- 94
2018-02-11 16:00:00 5 5 Norte 20 Noroeste 1.2 -- -- 96
2018-02-11 15:00:00 6.2 9 Norte 26 Nordeste 2 -- -- 94
2018-02-11 14:00:00 6.3 14 Nordeste 42 Noroeste 2 -- -- 92
2018-02-11 13:00:00 6.7 9 Nordeste 27 Norte 0.4 -- -- 92
2018-02-11 12:00:00 6.2 7 Sudeste 35 Nordeste 0.6 -- -- 95
2018-02-11 11:00:00 5.9 10 Norte 31 Noroeste 0 -- -- 97
2018-02-11 10:00:00 5.8 9 Sudeste 31 Norte 0 -- -- 99
2018-02-11 09:00:00 5.7 14 Norte 35 Nordeste 0.2 -- -- 99
2018-02-11 08:00:00 5.5 5 Nordeste 18 Nordeste 0.6 -- -- 99
2018-02-11 07:00:00 5.5 6 Nordeste 16 Norte 0.2 -- -- 99
2018-02-11 06:00:00 5.4 8 Nordeste 24 Nordeste 0.2 -- -- 99
2018-02-11 05:00:00 5.2 9 Norte 23 Norte 0.2 -- -- 99
2018-02-11 04:00:00 4.4 4 Nordeste 18 Nordeste 0 -- -- 99
2018-02-11 03:00:00 4.1 4 Nordeste 14 Nordeste 0.2 -- -- 99
2018-02-11 02:00:00 4.2 5 Norte 16 Noroeste 0.2 -- -- 98
2018-02-11 01:00:00 2.7 2 Este 9 Norte 0.4 -- -- 98
2018-02-11 00:00:00 2.4 0 Calma 8 Nordeste 0.2 -- -- 98
2018-02-10 23:00:00 2.7 4 Norte 18 Norte 0 -- -- 97
2018-02-10 22:00:00 2.4 4 Norte 10 Norte 0.2 -- -- 99
2018-02-10 21:00:00 1.6 2 Sudeste 4 Sudeste 0.4 -- -- 98
2018-02-10 20:00:00 1.4 0 Calma 4 Nordeste 0.4 -- -- 98
2018-02-10 19:00:00 1.6 0 Calma 5 Nordeste 0.2 -- -- 97
2018-02-10 18:00:00 1.9 2 Nordeste 9 Nordeste 0.2 -- -- 97
2018-02-10 17:00:00 2 4 Nordeste 10 Nordeste 0 -- -- 95
2018-02-10 16:00:00 2.1 3 Nordeste 8 Nordeste 0 -- -- 94
2018-02-10 15:00:00 2.4 3 Norte 8 Nordeste 0 -- -- 91
2018-02-10 14:00:00 2.8 3 Norte 12 Nordeste 0 -- -- 91
2018-02-10 13:00:00 2.1 2 Nordeste 9 Noroeste 0.2 -- -- 91
2018-02-10 12:00:00 1.3 2 Norte 12 Noroeste 0 -- -- 93
2018-02-10 11:00:00 0.5 6 Norte 14 Norte 0 -- -- 94
2018-02-10 10:00:00 -0.2 3 Norte 9 Nordeste 0 -- -- 96
2018-02-10 09:00:00 -0.5 5 Norte 10 Norte 0.2 -- -- 97
2018-02-10 08:00:00 -0.7 3 Norte 10 Norte 0 -- -- 97
2018-02-10 07:00:00 -0.6 3 Norte 12 Nordeste 0 -- -- 96
2018-02-10 06:00:00 -0.8 3 Nordeste 11 Noroeste 0 -- -- 95
2018-02-10 05:00:00 -0.9 5 Norte 14 Norte 0 -- -- 92
2018-02-10 04:00:00 -1 5 Norte 12 Norte 0 -- -- 89
2018-02-10 03:00:00 -1.1 5 Norte 12 Noroeste 0 -- -- 91
2018-02-10 02:00:00 -1.1 6 Norte 15 Norte 0 -- -- 94
2018-02-10 01:00:00 -0.9 6 Norte 19 Norte 0 -- -- 96
2018-02-10 00:00:00 -0.8 7 Norte 18 Norte 0 -- -- 91
2018-02-09 23:00:00 -0.8 9 Norte 24 Noroeste 0 -- -- 96
2018-02-09 22:00:00 -0.6 9 Norte 24 Norte 0 -- -- 97
2018-02-09 21:00:00 -0.5 9 Norte 22 Norte 0.2 -- -- 96
2018-02-09 20:00:00 -0.3 8 Norte 18 Nordeste 0 -- -- 97
2018-02-09 19:00:00 0 9 Norte 23 Nordeste 0 -- -- 97
2018-02-09 18:00:00 0.3 11 Norte 29 Nordeste 0 -- -- 98
2018-02-09 17:00:00 0.7 12 Norte 34 Nordeste 0.4 -- -- 98
2018-02-09 16:00:00 1.1 10 Norte 32 Nordeste 1.2 -- -- 98
2018-02-09 15:00:00 1.9 6 Nordeste 30 Nordeste 0.4 -- -- 98
2018-02-09 14:00:00 1.8 10 Norte 24 Norte 0.4 -- -- 97
2018-02-09 13:00:00 1.9 9 Norte 24 Norte 0.2 -- -- 97
2018-02-09 12:00:00 2.2 7 Norte 21 Norte 0.6 -- -- 97
2018-02-09 11:00:00 2.3 9 Norte 18 Norte 0 -- -- 97
2018-02-09 10:00:00 2.1 6 Norte 22 Nordeste 0.2 -- -- 98
2018-02-09 09:00:00 1.6 5 Norte 10 Norte 0.2 -- -- 97
2018-02-09 08:00:00 1.2 5 Nordeste 12 Este 0.4 -- -- 98
2018-02-09 07:00:00 1.2 4 Norte 11 Noroeste 0.4 -- -- 97
2018-02-09 06:00:00 1.2 3 Este 7 Sudeste 0.4 -- -- 98
2018-02-09 05:00:00 0.7 0 Calma 7 Sudeste 1 -- -- 97
2018-02-09 04:00:00 0.4 2 Noroeste 6 Nordeste 1.4 -- -- 96
2018-02-09 03:00:00 0.4 3 Este 7 Oeste 1 -- -- 96
2018-02-09 02:00:00 0.3 3 Sudeste 6 Sudeste 0.6 -- -- 95
2018-02-09 01:00:00 0.2 3 Nordeste 9 Sudoeste 0.4 -- -- 93
2018-02-09 00:00:00 0.8 5 Oeste 17 Oeste 0 -- -- 88
2018-02-08 23:00:00 0.7 4 Sudoeste 11 Oeste 0 -- -- 81
2018-02-08 22:00:00 0.2 0 Calma 5 Norte 0 -- -- 84
2018-02-08 21:00:00 -0.1 3 Norte 6 Norte 0 -- -- 86
2018-02-08 20:00:00 -0.1 0 Calma 6 Norte 0 -- -- 83
2018-02-08 19:00:00 0.1 3 Norte 8 Norte 0 -- -- 83
2018-02-08 18:00:00 0.8 2 Sudoeste 10 Noroeste 0 -- -- 77
2018-02-08 17:00:00 3.2 5 Noroeste 10 Norte 0 -- -- 64
2018-02-08 16:00:00 2.9 2 Nordeste 8 Nordeste 0 -- -- 65
2018-02-08 15:00:00 4.1 4 Nordeste 13 Norte 0 -- -- 60
2018-02-08 14:00:00 5 3 Nordeste 10 Norte 0 -- -- 55
2018-02-08 13:00:00 2.5 7 Nordeste 13 Nordeste 0 -- -- 65
2018-02-08 12:00:00 2.3 7 Nordeste 13 Nordeste 0 -- -- 69
2018-02-08 11:00:00 0.7 4 Norte 9 Nordeste 0 -- -- 74
2018-02-08 10:00:00 2.3 2 Sur 7 Norte 0 -- -- 70
2018-02-08 09:00:00 -4.2 2 Norte 6 Noroeste 0 -- -- 94
2018-02-08 08:00:00 -3.7 5 Norte 6 Norte 0 -- -- 92
2018-02-08 07:00:00 -4.1 0 Calma 5 Norte 0 -- -- 93
2018-02-08 06:00:00 -5.5 0 Calma 8 Norte 0 -- -- 95
2018-02-08 05:00:00 -4.4 5 Norte 8 Norte 0 -- -- 93
2018-02-08 04:00:00 -4.5 2 Norte 5 Oeste 0 -- -- 96
2018-02-08 03:00:00 -4.6 2 Sudeste 10 Norte 0 -- -- 91
2018-02-08 02:00:00 -3.8 0 Calma 8 Norte 0 -- -- 93
2018-02-08 01:00:00 -3.5 3 Noroeste 10 Noroeste 0.2 -- -- 94
2018-02-08 00:00:00 -3.2 4 Norte 16 Norte 0 -- -- 95
2018-02-07 23:00:00 -3.3 9 Norte 18 Noroeste 0 -- -- 95
2018-02-07 22:00:00 -2.9 5 Norte 16 Nordeste 0 -- -- 96
2018-02-07 21:00:00 -2.9 5 Norte 13 Norte 0 -- -- 94
2018-02-07 20:00:00 -3 9 Norte 19 Nordeste 0 -- -- 94
2018-02-07 19:00:00 -2.5 7 Norte 17 Norte 0 -- -- 94
2018-02-07 18:00:00 -2.1 7 Norte 22 Norte 0.2 -- -- 92
2018-02-07 17:00:00 -1 8 Norte 18 Noroeste 0 -- -- 89
2018-02-07 16:00:00 0.3 9 Norte 21 Norte 0.4 -- -- 87
2018-02-07 15:00:00 -0.3 6 Norte 20 Norte 0 -- -- 87
2018-02-07 14:00:00 1.1 7 Norte 17 Nordeste 0 -- -- 85
2018-02-07 13:00:00 0.4 9 Norte 20 Norte 0 -- -- 87
2018-02-07 12:00:00 0.7 8 Norte 17 Norte 0.2 -- -- 85
2018-02-07 11:00:00 -1.5 9 Norte 21 Nordeste 0.4 -- -- 94
2018-02-07 10:00:00 -2.2 9 Norte 17 Norte 0 -- -- 96
2018-02-07 09:00:00 -2.7 6 Norte 13 Norte 0 -- -- 97
2018-02-07 08:00:00 -2.6 7 Norte 17 Norte 0.2 -- -- 97
2018-02-07 07:00:00 -2.5 8 Norte 17 Nordeste 0 -- -- 97
2018-02-07 06:00:00 -2.4 8 Norte 17 Norte 0.2 -- -- 97
2018-02-07 05:00:00 -2.4 6 Norte 17 Norte 0 -- -- 97
2018-02-07 04:00:00 -2.3 8 Norte 24 Norte 0.2 -- -- 97
2018-02-07 03:00:00 -2.2 9 Norte 19 Norte 0 -- -- 97
2018-02-07 02:00:00 -2.2 9 Norte 22 Norte 0 -- -- 97
2018-02-07 01:00:00 -2.1 9 Norte 20 Norte 0.2 -- -- 97
2018-02-07 00:00:00 -1.8 12 Norte 24 Norte 0.6 -- -- 96
2018-02-06 23:00:00 -1.7 5 Norte 14 Nordeste 0 -- -- 95
2018-02-06 22:00:00 -1.7 6 Norte 17 Norte 0 -- -- 93
2018-02-06 21:00:00 -1.9 6 Norte 18 Norte 0 -- -- 95
2018-02-06 20:00:00 -1.9 9 Norte 19 Norte 0.2 -- -- 96
2018-02-06 19:00:00 -1.8 9 Norte 21 Norte 0 -- -- 93
2018-02-06 18:00:00 -1.5 8 Norte 21 Norte 0 -- -- 89
2018-02-06 17:00:00 -1.3 10 Norte 22 Nordeste 0 -- -- 91
2018-02-06 16:00:00 -1 5 Sudeste 18 Este 0.2 -- -- 90
2018-02-06 15:00:00 -0.8 7 Norte 18 Norte 0 -- -- 85
2018-02-06 14:00:00 -0.5 8 Norte 21 Noroeste 0 -- -- 88
2018-02-06 13:00:00 -1.9 8 Norte 19 Norte 0 -- -- 93
2018-02-06 12:00:00 -2 6 Norte 17 Nordeste 0 -- -- 92
2018-02-06 11:00:00 -2 6 Norte 14 Norte 0 -- -- 93
2018-02-06 10:00:00 -2.7 7 Norte 21 Nordeste 0 -- -- 95
2018-02-06 09:00:00 -3.3 8 Norte 18 Nordeste 0 -- -- 94
2018-02-06 08:00:00 -3.7 7 Norte 17 Nordeste 0 -- -- 91
2018-02-06 07:00:00 -4 9 Norte 20 Norte 0 -- -- 91
2018-02-06 06:00:00 -3.7 10 Norte 22 Noroeste 0 -- -- 90
2018-02-06 05:00:00 -3.8 10 Norte 20 Norte 0 -- -- 88
2018-02-06 04:00:00 -4.4 10 Norte 23 Norte 0 -- -- 89
2018-02-06 03:00:00 -4.5 10 Norte 22 Norte 0 -- -- 89
2018-02-06 02:00:00 -4.3 9 Norte 22 Noroeste 0 -- -- 87
2018-02-06 01:00:00 -3.7 10 Norte 26 Nordeste 0 -- -- 89
2018-02-06 00:00:00 -3.9 9 Norte 24 Noroeste 0 -- -- 91
2018-02-05 23:00:00 -3.8 11 Norte 28 Norte 0 -- -- 91
2018-02-05 22:00:00 -3.6 12 Norte 29 Nordeste 0 -- -- 93
2018-02-05 21:00:00 -3.4 13 Norte 29 Noroeste 0 -- -- 94
2018-02-05 20:00:00 -3.4 12 Norte 29 Nordeste 0 -- -- 94
2018-02-05 19:00:00 -3.2 13 Norte 31 Noroeste 0 -- -- 92
2018-02-05 18:00:00 -2.5 10 Norte 31 Norte 0 -- -- 87
2018-02-05 17:00:00 -2 9 Norte 28 Noroeste 0 -- -- 85
2018-02-05 16:00:00 -0.6 15 Norte 39 Noroeste 0 -- -- 79
2018-02-05 15:00:00 -1.3 12 Norte 27 Nordeste 0 -- -- 87
2018-02-05 14:00:00 1.1 8 Norte 29 Norte 0 -- -- 74
2018-02-05 13:00:00 4.9 5 Norte 27 Nordeste 0 -- -- 68
2018-02-05 12:00:00 -0.2 15 Norte 29 Nordeste 1.4 -- -- 87
2018-02-05 11:00:00 -1.1 11 Norte 27 Norte 0.2 -- -- 96
2018-02-05 10:00:00 -1.4 8 Norte 18 Noroeste 0.2 -- -- 97
2018-02-05 09:00:00 -1.6 6 Norte 19 Noroeste 0 -- -- 97
2018-02-05 08:00:00 -1.7 7 Norte 15 Norte 0.6 -- -- 97
2018-02-05 07:00:00 -1.8 3 Noroeste 18 Norte 0 -- -- 97
2018-02-05 06:00:00 -1.7 10 Norte 20 Norte 0.2 -- -- 97
2018-02-05 05:00:00 -1.5 8 Norte 18 Norte 0.2 -- -- 97
2018-02-05 04:00:00 -1.5 9 Norte 18 Norte 0 -- -- 97
2018-02-05 03:00:00 -1.5 7 Norte 12 Norte 0 -- -- 97
2018-02-05 02:00:00 -1.6 6 Norte 19 Noroeste 0 -- -- 97
2018-02-05 01:00:00 -1.5 8 Norte 17 Nordeste 0.4 -- -- 97
2018-02-05 00:00:00 -1.4 8 Norte 19 Norte 0.4 -- -- 97
2018-02-04 23:00:00 -1.3 12 Norte 20 Norte 0 -- -- 97
2018-02-04 22:00:00 -0.9 9 Norte 19 Norte 0.2 -- -- 97
2018-02-04 21:00:00 -0.7 9 Norte 19 Norte 0 -- -- 97
2018-02-04 20:00:00 -0.6 7 Norte 17 Norte 0 -- -- 96
2018-02-04 19:00:00 -0.5 5 Norte 16 Norte 0 -- -- 95
2018-02-04 18:00:00 -0.1 5 Norte 14 Nordeste 0.2 -- -- 94
2018-02-04 17:00:00 0.3 9 Norte 18 Norte 0 -- -- 91
2018-02-04 16:00:00 0.7 8 Norte 20 Norte 0 -- -- 90
2018-02-04 15:00:00 1.3 5 Norte 18 Norte 0 -- -- 91
2018-02-04 14:00:00 0.9 5 Norte 13 Norte 0 -- -- 91
2018-02-04 13:00:00 0.8 5 Norte 15 Noroeste 0 -- -- 94
2018-02-04 12:00:00 0.5 6 Norte 15 Norte 2.2 -- -- 95
2018-02-04 11:00:00 0.4 7 Norte 21 Norte 0.4 -- -- 96
2018-02-04 10:00:00 -1.3 5 Norte 14 Nordeste 0.4 -- -- 97
2018-02-04 09:00:00 -1.9 7 Norte 19 Norte 0.6 -- -- 98
2018-02-04 08:00:00 -2 6 Norte 17 Noroeste 0.2 -- -- 98
2018-02-04 07:00:00 -2.1 5 Norte 19 Norte 0.2 -- -- 98
2018-02-04 06:00:00 -1.9 7 Norte 20 Norte 1.8 -- -- 98
2018-02-04 05:00:00 -1.9 5 Norte 14 Nordeste 1.6 -- -- 98
2018-02-04 04:00:00 -1.7 3 Norte 15 Norte 1.6 -- -- 98
2018-02-04 03:00:00 -1.4 6 Norte 15 Norte 1.2 -- -- 98
2018-02-04 02:00:00 -1.3 5 Norte 15 Norte 0.2 -- -- 98
2018-02-04 01:00:00 -0.9 4 Sudoeste 15 Nordeste 1.2 -- -- 98
2018-02-04 00:00:00 -0.9 3 Oeste 20 Norte 1 -- -- 98
2018-02-03 23:00:00 -0.3 6 Norte 27 Norte 2.4 -- -- 96
2018-02-03 22:00:00 0.3 3 Norte 26 Norte 1.6 -- -- 95
2018-02-03 21:00:00 0.9 6 Norte 29 Norte 1.4 -- -- 95
2018-02-03 20:00:00 1.3 8 Norte 28 Norte 0.8 -- -- 96
2018-02-03 19:00:00 1.5 9 Norte 25 Noroeste 0.8 -- -- 96
2018-02-03 18:00:00 1.7 8 Norte 22 Nordeste 0.2 -- -- 96
2018-02-03 17:00:00 1.9 6 Norte 22 Norte 0.6 -- -- 97
2018-02-03 16:00:00 2.5 4 Sudeste 16 Norte 0.2 -- -- 97
2018-02-03 15:00:00 2 8 Noroeste 30 Norte 0.2 -- -- 97
2018-02-03 14:00:00 2.2 14 Noroeste 36 Norte 0.6 -- -- 96
2018-02-03 13:00:00 2.2 14 Norte 31 Norte 0.6 -- -- 96
2018-02-03 12:00:00 2.2 15 Norte 32 Norte 0.4 -- -- 95
2018-02-03 11:00:00 1.6 11 Norte 30 Noroeste 0.2 -- -- 97
2018-02-03 10:00:00 0.8 9 Norte 23 Noroeste 0 -- -- 97
2018-02-03 09:00:00 -0.1 4 Nordeste 14 Nordeste 0.8 -- -- 96
2018-02-03 08:00:00 0.1 4 Sudeste 22 Norte 0.2 -- -- 97
2018-02-03 07:00:00 -0.2 5 Norte 17 Norte 0.4 -- -- 97
2018-02-03 06:00:00 -0.4 2 Este 18 Noroeste 0.2 -- -- 97
2018-02-03 05:00:00 -0.8 8 Noroeste 18 Noroeste 0 -- -- 96
2018-02-03 04:00:00 -0.8 9 Noroeste 17 Noroeste 0 -- -- 96
2018-02-03 03:00:00 -0.7 7 Noroeste 15 Noroeste 0 -- -- 95
2018-02-03 02:00:00 -0.8 7 Noroeste 14 Norte 0 -- -- 95
2018-02-03 01:00:00 -1 2 Noroeste 12 Noroeste 0 -- -- 95
2018-02-03 00:00:00 -1.2 2 Norte 12 Norte 0 -- -- 95
2018-02-02 23:00:00 -1.2 7 Norte 17 Norte 0 -- -- 94
2018-02-02 22:00:00 -1.1 7 Norte 13 Norte 0 -- -- 95
2018-02-02 21:00:00 -1.1 4 Norte 13 Norte 0.2 -- -- 95
2018-02-02 20:00:00 -1.1 4 Norte 18 Noroeste 0 -- -- 94
2018-02-02 19:00:00 -1.3 4 Norte 14 Nordeste 0 -- -- 93
2018-02-02 18:00:00 -0.7 3 Noroeste 18 Norte 0.6 -- -- 91
2018-02-02 17:00:00 0.6 5 Norte 21 Norte 0 -- -- 84
2018-02-02 16:00:00 1.9 9 Norte 17 Noroeste 0.4 -- -- 77
2018-02-02 15:00:00 -0.2 9 Norte 25 Nordeste 0.4 -- -- 85
2018-02-02 14:00:00 1.7 6 Nordeste 16 Norte 1.4 -- -- 82
2018-02-02 13:00:00 1.8 8 Norte 21 Noroeste 0.8 -- -- 93
2018-02-02 12:00:00 -0.5 8 Norte 23 Nordeste 1 -- -- 97
2018-02-02 11:00:00 -0.6 6 Norte 19 Norte 0.4 -- -- 97
2018-02-02 10:00:00 -1.6 5 Norte 17 Norte 0 -- -- 97
2018-02-02 09:00:00 -1.8 7 Norte 17 Noroeste 0.2 -- -- 98
2018-02-02 08:00:00 -1.7 5 Norte 19 Norte 0 -- -- 98
2018-02-02 07:00:00 -1.8 6 Norte 18 Norte 0.8 -- -- 98
2018-02-02 06:00:00 -1.8 7 Norte 17 Nordeste 0 -- -- 97
2018-02-02 05:00:00 -2.2 5 Norte 16 Norte 0.2 -- -- 97
2018-02-02 04:00:00 -2 6 Norte 20 Nordeste 0.6 -- -- 97
2018-02-02 03:00:00 -2.1 8 Norte 18 Norte 0.4 -- -- 97
2018-02-02 02:00:00 -2.3 9 Norte 21 Norte 0.2 -- -- 97
2018-02-02 01:00:00 -1.9 12 Norte 31 Nordeste 0.6 -- -- 98
2018-02-02 00:00:00 -1.9 10 Norte 23 Nordeste 1.2 -- -- 97
2018-02-01 23:00:00 -1.5 6 Norte 18 Noroeste 2.2 -- -- 98
2018-02-01 22:00:00 -0.8 5 Norte 18 Norte 0.2 -- -- 98
2018-02-01 21:00:00 -1.2 3 Norte 19 Norte 2 -- -- 98
2018-02-01 20:00:00 -1.6 7 Norte 19 Noroeste 2.6 -- -- 98
2018-02-01 19:00:00 -0.9 6 Norte 21 Norte 1.4 -- -- 98
2018-02-01 18:00:00 -0.6 6 Norte 21 Norte 1.4 -- -- 97
2018-02-01 17:00:00 -0.4 7 Norte 23 Norte 0.2 -- -- 96
2018-02-01 16:00:00 -0.4 9 Norte 25 Norte 0.8 -- -- 97
2018-02-01 15:00:00 -0.3 6 Nordeste 21 Nordeste 2.2 -- -- 97
2018-02-01 14:00:00 0 7 Norte 21 Noroeste 1.4 -- -- 96
2018-02-01 13:00:00 0.1 8 Norte 27 Nordeste 1.4 -- -- 95
2018-02-01 12:00:00 1.8 3 Nordeste 17 Este 0 -- -- 92
2018-02-01 11:00:00 0.9 5 Nordeste 23 Noroeste 0.2 -- -- 95
2018-02-01 10:00:00 0.8 3 Noroeste 15 Noroeste 0 -- -- 96
2018-02-01 09:00:00 0.8 5 Norte 20 Norte 0 -- -- 97
2018-02-01 08:00:00 0.9 4 Norte 20 Nordeste 0.2 -- -- 97
2018-02-01 07:00:00 1.3 5 Norte 17 Norte 0 -- -- 97
2018-02-01 06:00:00 1.2 12 Norte 29 Norte 0.4 -- -- 97
2018-02-01 05:00:00 2.7 7 Norte 22 Norte 1.4 -- -- 97
2018-02-01 04:00:00 3.2 3 Nordeste 12 Noroeste 0.8 -- -- 97
2018-02-01 03:00:00 3.4 2 Sudeste 8 Norte 0.6 -- -- 97
2018-02-01 02:00:00 3.4 5 Noroeste 10 Noroeste 0 -- -- 96
2018-02-01 01:00:00 3.8 5 Nordeste 13 Norte 0.4 -- -- 96
2018-02-01 00:00:00 4.4 3 Norte 12 Nordeste 0 -- -- 95
2018-01-31 23:00:00 4.6 5 Norte 15 Norte 0.2 -- -- 93
2018-01-31 22:00:00 5.2 6 Norte 14 Noroeste 0 -- -- 80
2018-01-31 21:00:00 4.8 8 Norte 14 Norte 0 -- -- 83
2018-01-31 20:00:00 5.3 5 Norte 12 Norte 0 -- -- 74
2018-01-31 19:00:00 6.5 5 Norte 11 Noroeste 0 -- -- 58
2018-01-31 18:00:00 7.9 4 Norte 11 Norte 0 -- -- 42
2018-01-31 17:00:00 10.5 5 Nordeste 21 Norte 0 -- -- 37
2018-01-31 16:00:00 11.1 6 Nordeste 19 Nordeste 0 -- -- 45
2018-01-31 15:00:00 12.1 8 Norte 18 Nordeste 0 -- -- 43
2018-01-31 14:00:00 12.9 4 Este 13 Sur 0 -- -- 36
2018-01-31 13:00:00 12.1 8 Sudoeste 17 Sudeste 0 -- -- 31
2018-01-31 12:00:00 12.9 6 Sur 11 Sur 0 -- -- 36
2018-01-31 11:00:00 12.4 3 Sur 6 Sur 0 -- -- 36
2018-01-31 10:00:00 12.2 2 Sur 6 Norte 0 -- -- 42
2018-01-31 09:00:00 6.2 3 Norte 7 Norte 0 -- -- 45
2018-01-31 08:00:00 6.4 4 Noroeste 8 Norte 0 -- -- 44
2018-01-31 07:00:00 5.7 3 Noroeste 6 Norte 0 -- -- 53
2018-01-31 06:00:00 5.7 0 Calma 5 Norte 0 -- -- 56
2018-01-31 05:00:00 6 2 Nordeste 8 Noroeste 0 -- -- 57
2018-01-31 04:00:00 6.3 2 Nordeste 8 Noroeste 0 -- -- 55
2018-01-31 03:00:00 7.6 4 Noroeste 7 Noroeste 0 -- -- 50
2018-01-31 02:00:00 7.1 5 Noroeste 7 Noroeste 0 -- -- 53
2018-01-31 01:00:00 6.8 3 Norte 8 Sudoeste 0 -- -- 56
2018-01-31 00:00:00 6.8 3 Noroeste 5 Noroeste 0 -- -- 53
2018-01-30 23:00:00 6.5 0 Calma 3 Noroeste 0 -- -- 56
2018-01-30 22:00:00 7.1 3 Noroeste 5 Noroeste 0 -- -- 52
2018-01-30 21:00:00 7.3 3 Noroeste 5 Norte 0 -- -- 58
2018-01-30 20:00:00 7.4 0 Calma 9 Noroeste 0 -- -- 56
2018-01-30 19:00:00 9.2 7 Norte 10 Noroeste 0 -- -- 43
2018-01-30 18:00:00 9.4 2 Norte 4 Norte 0 -- -- 41
2018-01-30 17:00:00 13.4 0 Calma 6 Sur 0 -- -- 35
2018-01-30 16:00:00 12.8 4 Sur 8 Sur 0 -- -- 40
2018-01-30 15:00:00 13.2 4 Sudeste 15 Sur 0 -- -- 43
2018-01-30 14:00:00 13.2 10 Sur 18 Sur 0 -- -- 33
2018-01-30 13:00:00 12.6 12 Sur 26 Sur 0 -- -- 33
2018-01-30 12:00:00 12.2 10 Sur 24 Sur 0 -- -- 36
2018-01-30 11:00:00 12.8 4 Sur 12 Sudeste 0 -- -- 36
2018-01-30 10:00:00 11.7 4 Sur 16 Sur 0 -- -- 39
2018-01-30 09:00:00 7.2 4 Sur 11 Sur 0 -- -- 50
2018-01-30 08:00:00 6.8 3 Noroeste 6 Este 0 -- -- 52
2018-01-30 07:00:00 5.5 2 Este 7 Sudeste 0 -- -- 56
2018-01-30 06:00:00 5.5 0 Calma 7 Nordeste 0 -- -- 57
2018-01-30 05:00:00 5.2 2 Sudeste 6 Sur 0 -- -- 59
2018-01-30 04:00:00 5.7 3 Este 6 Este 0 -- -- 58
2018-01-30 03:00:00 6.4 3 Nordeste 10 Sur 0 -- -- 55
2018-01-30 02:00:00 8.6 4 Sudoeste 17 Sur 0 -- -- 46
2018-01-30 01:00:00 6.8 0 Calma 5 Noroeste 0 -- -- 53
2018-01-30 00:00:00 6.5 0 Calma 6 Noroeste 0 -- -- 62
2018-01-29 23:00:00 6.7 0 Calma 6 Norte 0 -- -- 63
2018-01-29 22:00:00 7.5 3 Noroeste 6 Norte 0 -- -- 56
2018-01-29 21:00:00 7.3 0 Calma 4 Noroeste 0 -- -- 62
2018-01-29 20:00:00 7.6 0 Calma 6 Norte 0 -- -- 62
2018-01-29 19:00:00 8.2 3 Norte 8 Norte 0 -- -- 60
2018-01-29 18:00:00 8.9 2 Norte 4 Norte 0 -- -- 58
2018-01-29 17:00:00 13.1 2 Oeste 9 Noroeste 0 -- -- 44
2018-01-29 16:00:00 13.4 4 Sudoeste 12 Norte 0 -- -- 43
2018-01-29 15:00:00 11.9 9 Nordeste 18 Nordeste 0 -- -- 46
2018-01-29 14:00:00 12.5 9 Nordeste 15 Nordeste 0 -- -- 43
2018-01-29 13:00:00 12.3 6 Sur 12 Sur 0 -- -- 47
2018-01-29 12:00:00 12.5 4 Sur 8 Sur 0 -- -- 45
2018-01-29 11:00:00 11.3 3 Sur 7 Sur 0 -- -- 51
2018-01-29 10:00:00 9.9 3 Sudeste 5 Sur 0 -- -- 50
2018-01-29 09:00:00 5.7 0 Calma 5 Sudeste 0 -- -- 61
2018-01-29 08:00:00 4.2 2 Norte 6 Este 0 -- -- 70
2018-01-29 07:00:00 6 4 Oeste 14 Sur 0 -- -- 61
2018-01-29 06:00:00 6.4 4 Sudeste 23 Sur 0 -- -- 60
2018-01-29 05:00:00 6.5 14 Sur 40 Sur 0 -- -- 63
2018-01-29 04:00:00 6.4 28 Sur 46 Sur 0 -- -- 63
2018-01-29 03:00:00 6.9 29 Sur 47 Sur 0 -- -- 59
2018-01-29 02:00:00 7.2 21 Sudoeste 44 Sur 0 -- -- 58
2018-01-29 01:00:00 6.8 22 Sur 42 Sur 0 -- -- 59
2018-01-29 00:00:00 6.8 23 Sur 46 Sur 0 -- -- 59
2018-01-28 23:00:00 7.4 32 Sur 49 Sur 0 -- -- 56
2018-01-28 22:00:00 7.7 29 Sur 41 Sur 0 -- -- 53
2018-01-28 21:00:00 6.9 16 Sur 27 Sur 0 -- -- 56
2018-01-28 20:00:00 6.2 9 Sur 27 Sur 0 -- -- 60
2018-01-28 19:00:00 7.2 9 Sur 22 Sur 0 -- -- 56
2018-01-28 18:00:00 8.5 8 Sur 25 Sur 0 -- -- 50
2018-01-28 17:00:00 10.3 14 Sur 31 Sur 0 -- -- 42
2018-01-28 16:00:00 11.7 14 Sudeste 35 Sudeste 0 -- -- 39
2018-01-28 15:00:00 11.2 18 Sur 44 Sur 0 -- -- 36
2018-01-28 14:00:00 10.3 19 Sur 33 Sur 0 -- -- 40
2018-01-28 13:00:00 9.7 18 Sur 32 Sur 0 -- -- 42
2018-01-28 12:00:00 8.8 14 Sur 42 Sur 0 -- -- 38
2018-01-28 11:00:00 8.1 12 Sur 23 Sur 0 -- -- 44
2018-01-28 10:00:00 5.5 13 Sur 26 Sur 0 -- -- 58
2018-01-28 09:00:00 2.4 4 Noroeste 13 Oeste 0 -- -- 99
2018-01-28 08:00:00 2.2 0 Calma 6 Noroeste 0 -- -- 99
2018-01-28 07:00:00 2 0 Calma 6 Norte 0 -- -- 99
2018-01-28 06:00:00 2.9 4 Noroeste 7 Noroeste 0 -- -- 99
2018-01-28 05:00:00 1.1 3 Oeste 10 Norte 0 -- -- 98
2018-01-28 04:00:00 1.6 5 Este 10 Nordeste 0 -- -- 99
2018-01-28 03:00:00 2.4 3 Sudoeste 5 Sur 0 -- -- 98
2018-01-28 02:00:00 2.9 0 Calma 15 Noroeste 0 -- -- 98
2018-01-28 01:00:00 2.9 4 Sur 17 Norte 0 -- -- 97
2018-01-28 00:00:00 2.7 2 Este 12 Norte 0 -- -- 97
2018-01-27 23:00:00 3.8 2 Oeste 10 Noroeste 0 -- -- 97
2018-01-27 22:00:00 4.5 3 Norte 14 Norte 0.2 -- -- 96
2018-01-27 21:00:00 4.1 4 Norte 13 Nordeste 0 -- -- 97
2018-01-27 20:00:00 3.8 5 Norte 10 Norte 0.4 -- -- 96
2018-01-27 19:00:00 3.4 4 Norte 14 Noroeste 0.2 -- -- 96
2018-01-27 18:00:00 3.2 6 Norte 12 Nordeste 0.6 -- -- 97
2018-01-27 17:00:00 3.3 5 Norte 15 Norte 0.2 -- -- 96
2018-01-27 16:00:00 3.4 5 Norte 13 Norte 0.2 -- -- 95
2018-01-27 15:00:00 3.5 4 Norte 12 Nordeste 0 -- -- 95
2018-01-27 14:00:00 3.2 6 Norte 19 Norte 0 -- -- 95
2018-01-27 13:00:00 2.8 4 Norte 19 Nordeste 0 -- -- 95
2018-01-27 12:00:00 2.6 8 Norte 25 Norte 0 -- -- 96
2018-01-27 11:00:00 1.8 10 Norte 22 Norte 0 -- -- 98
2018-01-27 10:00:00 1.4 6 Norte 25 Nordeste 0 -- -- 99
2018-01-27 09:00:00 1.2 10 Norte 24 Norte 0 -- -- 99
2018-01-27 08:00:00 1.1 9 Norte 22 Norte 0 -- -- 99
2018-01-27 07:00:00 1.1 9 Norte 21 Oeste 0 -- -- 99
2018-01-27 06:00:00 0.9 9 Norte 24 Nordeste 0 -- -- 99
2018-01-27 05:00:00 1 6 Norte 22 Nordeste 0 -- -- 99
2018-01-27 04:00:00 1 9 Norte 22 Nordeste 0 -- -- 99
2018-01-27 03:00:00 0.9 8 Norte 22 Norte 0 -- -- 99
2018-01-27 02:00:00 0.9 5 Norte 16 Norte 0 -- -- 99
2018-01-27 01:00:00 1 9 Norte 24 Nordeste 0.2 -- -- 99
2018-01-27 00:00:00 1 7 Norte 27 Nordeste 0 -- -- 98
2018-01-26 23:00:00 0.9 12 Norte 22 Nordeste 0.2 -- -- 98
2018-01-26 22:00:00 1.1 10 Norte 26 Norte 0 -- -- 98
2018-01-26 21:00:00 1.1 7 Norte 26 Norte 0 -- -- 98
2018-01-26 20:00:00 0.9 6 Norte 26 Norte 0 -- -- 98
2018-01-26 19:00:00 1.1 6 Norte 21 Norte 0.2 -- -- 97
2018-01-26 18:00:00 1 3 Norte 22 Nordeste 0.2 -- -- 97
2018-01-26 17:00:00 0.6 10 Norte 29 Nordeste 1 -- -- 96
2018-01-26 16:00:00 2.1 7 Norte 24 Norte 0.4 -- -- 97
2018-01-26 15:00:00 1.8 9 Norte 23 Norte 0 -- -- 96
2018-01-26 14:00:00 1.7 10 Norte 27 Norte 1 -- -- 94
2018-01-26 13:00:00 1.5 6 Norte 16 Norte 0 -- -- 93
2018-01-26 12:00:00 0.6 5 Norte 16 Noroeste 0.6 -- -- 95
2018-01-26 11:00:00 0.7 6 Norte 22 Nordeste 0 -- -- 95
2018-01-26 10:00:00 0.5 5 Norte 22 Noroeste 0.2 -- -- 96
2018-01-26 09:00:00 0.3 5 Norte 23 Norte 0.2 -- -- 94
2018-01-26 08:00:00 0.4 6 Norte 23 Norte 0 -- -- 95
2018-01-26 07:00:00 0.4 5 Norte 21 Norte 0.4 -- -- 94
2018-01-26 06:00:00 0.6 9 Norte 26 Noroeste 0 -- -- 94
2018-01-26 05:00:00 0.5 6 Norte 23 Norte 0.2 -- -- 95
2018-01-26 04:00:00 0.3 7 Norte 17 Norte 0.2 -- -- 95
2018-01-26 03:00:00 0.2 2 Norte 21 Noroeste 0 -- -- 96
2018-01-26 02:00:00 0.1 7 Norte 21 Noroeste 0 -- -- 97
2018-01-26 01:00:00 0.1 9 Noroeste 19 Noroeste 0.2 -- -- 96
2018-01-26 00:00:00 0.1 3 Norte 16 Norte 0 -- -- 95
2018-01-25 23:00:00 0.1 0 Calma 21 Norte 0 -- -- 96
2018-01-25 22:00:00 0.4 6 Norte 18 Noroeste 0 -- -- 95
2018-01-25 21:00:00 0.5 4 Norte 15 Nordeste 0 -- -- 94
2018-01-25 20:00:00 0.3 7 Norte 18 Nordeste 0.4 -- -- 95
2018-01-25 19:00:00 0.4 4 Norte 19 Noroeste 0.2 -- -- 95
2018-01-25 18:00:00 0.4 6 Norte 24 Norte 1.2 -- -- 93
2018-01-25 17:00:00 1.9 6 Norte 17 Noroeste 0 -- -- 90
2018-01-25 16:00:00 1.3 6 Nordeste 22 Norte 0 -- -- 93
2018-01-25 15:00:00 1.5 5 Norte 15 Noroeste 0.8 -- -- 93
2018-01-25 14:00:00 0.7 2 Norte 15 Noroeste 4.2 -- -- 95
2018-01-25 13:00:00 2.7 4 Nordeste 11 Noroeste 0 -- -- 94
2018-01-25 12:00:00 1.9 3 Sudoeste 13 Norte 0.8 -- -- 96
2018-01-25 11:00:00 2 5 Norte 22 Norte 2.4 -- -- 93
2018-01-25 10:00:00 2.5 4 Nordeste 24 Norte 1.6 -- -- 95
2018-01-25 09:00:00 2.9 10 Norte 25 Nordeste 2.2 -- -- 95
2018-01-25 08:00:00 3.9 6 Norte 29 Nordeste 0.4 -- -- 95
2018-01-25 07:00:00 4.1 14 Norte 32 Norte 1.2 -- -- 94
2018-01-25 06:00:00 5.3 8 Norte 29 Norte 1 -- -- 96
2018-01-25 05:00:00 5.5 3 Este 14 Sudeste 1.2 -- -- 97
2018-01-25 04:00:00 5.2 8 Sudeste 28 Sur 0.4 -- -- 97
2018-01-25 03:00:00 5.1 14 Sur 29 Sur 0.2 -- -- 97
2018-01-25 02:00:00 5.2 19 Sur 37 Sur 0 -- -- 96
2018-01-25 01:00:00 5 23 Sur 37 Sur 0.2 -- -- 96
2018-01-25 00:00:00 5.1 17 Sur 29 Sudeste 0 -- -- 95
2018-01-24 23:00:00 5.2 14 Sur 31 Sur 0 -- -- 95
2018-01-24 22:00:00 5.9 14 Sur 29 Sur 0 -- -- 92
2018-01-24 21:00:00 6.4 9 Sur 31 Sur 0 -- -- 89
2018-01-24 20:00:00 6.9 15 Sur 35 Sudoeste 0 -- -- 86
2018-01-24 19:00:00 6.9 13 Sur 32 Sudoeste 0 -- -- 86
2018-01-24 18:00:00 6.9 10 Sudoeste 25 Oeste 0 -- -- 86
2018-01-24 17:00:00 7.3 10 Sudoeste 30 Sudoeste 0 -- -- 84
2018-01-24 16:00:00 6.5 13 Sur 36 Sur 0 -- -- 90
2018-01-24 15:00:00 7 12 Sur 27 Sur 0 -- -- 86
2018-01-24 14:00:00 7.2 7 Sudeste 23 Sur 0 -- -- 78
2018-01-24 13:00:00 6.1 8 Sur 21 Sur 0 -- -- 78
2018-01-24 12:00:00 6 6 Sudeste 13 Sur 0 -- -- 81
2018-01-24 11:00:00 5.4 8 Sur 18 Sur 0 -- -- 82
2018-01-24 10:00:00 3 5 Sur 17 Sur 0 -- -- 91
2018-01-24 09:00:00 0.8 3 Sudoeste 15 Sur 0 -- -- 93
2018-01-24 08:00:00 1.7 8 Noroeste 22 Oeste 0 -- -- 90
2018-01-24 07:00:00 1.1 7 Noroeste 18 Oeste 0 -- -- 91
2018-01-24 06:00:00 1.4 4 Noroeste 17 Oeste 0 -- -- 91
2018-01-24 05:00:00 3.3 6 Oeste 14 Oeste 0 -- -- 80
2018-01-24 04:00:00 1.8 3 Este 13 Sudoeste 0 -- -- 93
2018-01-24 03:00:00 3.7 5 Sudoeste 11 Este 0 -- -- 85
2018-01-24 02:00:00 3.2 4 Este 18 Oeste 0 -- -- 88
2018-01-24 01:00:00 3.8 4 Nordeste 10 Sudeste 0 -- -- 87
2018-01-24 00:00:00 6.1 4 Sudeste 8 Nordeste 0 -- -- 80
2018-01-23 23:00:00 4.3 3 Este 7 Noroeste 0 -- -- 93
2018-01-23 22:00:00 4.1 2 Nordeste 6 Norte 0 -- -- 93
2018-01-23 21:00:00 4.5 3 Noroeste 6 Noroeste 0 -- -- 92
2018-01-23 20:00:00 4.6 3 Noroeste 5 Norte 0 -- -- 92
2018-01-23 19:00:00 5.1 0 Calma 8 Noroeste 0 -- -- 89
2018-01-23 18:00:00 6.7 0 Calma 5 Norte 0 -- -- 83
2018-01-23 17:00:00 8.9 3 Noroeste 6 Noroeste 0 -- -- 75
2018-01-23 16:00:00 10 5 Nordeste 12 Nordeste 0 -- -- 70
2018-01-23 15:00:00 10.3 4 Sur 10 Sur 0 -- -- 69
2018-01-23 14:00:00 8.8 4 Sur 9 Sur 0 -- -- 75
2018-01-23 13:00:00 8.7 6 Sur 15 Sur 0 -- -- 73
2018-01-23 12:00:00 7.3 6 Sur 12 Sur 0 -- -- 79
2018-01-23 11:00:00 5.7 2 Sudeste 9 Sudeste 0 -- -- 86
2018-01-23 10:00:00 5.1 4 Sudeste 10 Sur 0 -- -- 90
2018-01-23 09:00:00 4.9 7 Sur 14 Sudoeste 0 -- -- 91
2018-01-23 08:00:00 5 7 Sudoeste 18 Sudeste 0 -- -- 92
2018-01-23 07:00:00 5 9 Sudoeste 23 Sur 0 -- -- 91
2018-01-23 06:00:00 5.1 7 Sur 13 Sur 0 -- -- 91
2018-01-23 05:00:00 5.3 3 Sudoeste 15 Sudoeste 0 -- -- 90
2018-01-23 04:00:00 4.9 6 Oeste 21 Sudoeste 0 -- -- 91
2018-01-23 03:00:00 5.3 9 Sudoeste 15 Sudoeste 0 -- -- 91
2018-01-23 02:00:00 4.8 5 Oeste 12 Oeste 0 -- -- 93
2018-01-23 01:00:00 5 2 Noroeste 10 Oeste 0 -- -- 91
2018-01-23 00:00:00 5 4 Noroeste 13 Noroeste 0 -- -- 93
2018-01-22 23:00:00 5.8 6 Norte 10 Norte 0 -- -- 91
2018-01-22 22:00:00 7 2 Noroeste 6 Noroeste 0 -- -- 88
2018-01-22 21:00:00 7 0 Calma 4 Norte 0 -- -- 88
2018-01-22 20:00:00 7.1 2 Norte 5 Norte 0 -- -- 89
2018-01-22 19:00:00 7 0 Calma 4 Noroeste 0 -- -- 91
2018-01-22 18:00:00 7.4 0 Calma 4 Sur 0 -- -- 90
2018-01-22 17:00:00 7.5 2 Sudeste 10 Norte 0 -- -- 89
2018-01-22 16:00:00 7.5 3 Nordeste 10 Norte 0 -- -- 88
2018-01-22 15:00:00 7.5 7 Norte 18 Norte 0 -- -- 85
2018-01-22 14:00:00 8.2 4 Norte 14 Nordeste 0 -- -- 82
2018-01-22 13:00:00 8.4 5 Sudeste 11 Norte 0 -- -- 83
2018-01-22 12:00:00 7.8 6 Sur 14 Sur 0 -- -- 86
2018-01-22 11:00:00 7.2 2 Nordeste 6 Sudeste 0 -- -- 85
2018-01-22 10:00:00 6 2 Sur 11 Norte 0 -- -- 90
2018-01-22 09:00:00 5.8 4 Norte 9 Nordeste 0 -- -- 90
2018-01-22 08:00:00 5.7 3 Noroeste 7 Noroeste 0 -- -- 90
2018-01-22 07:00:00 5.3 2 Noroeste 7 Norte 0 -- -- 92
2018-01-22 06:00:00 5.1 0 Calma 6 Sudoeste 0 -- -- 91
2018-01-22 05:00:00 5.8 4 Oeste 10 Sur 0 -- -- 89
2018-01-22 04:00:00 5.6 2 Noroeste 10 Noroeste 0 -- -- 89
2018-01-22 03:00:00 6.6 3 Sur 12 Sudoeste 0 -- -- 87
2018-01-22 02:00:00 6.9 4 Sudoeste 12 Sudoeste 0 -- -- 89
2018-01-22 01:00:00 7 6 Sudoeste 12 Sudoeste 0 -- -- 91
2018-01-22 00:00:00 7.2 7 Sudoeste 14 Oeste 0 -- -- 91